Glendora, CA (91740)

3:03 PM PST on November 24, 2014 (GMT -0800)
South Glendora | Change Station
CLOSE
Current Station
Personal Weather Station
Location: Glendora, CA
Elevation: 750 ft
Nearby Weather Stations
Active Advisory: Fire Weather Warning

Elev 750 ft 34.11 °N, 117.85 °W | Updated 4 seconds ago

Partly Cloudy
Partly Cloudy
80.1 °F
Feels Like 78 °F
N
1.0
Wind Variable Wind from South
Gusts 1.0 mph

Today
High -- | Low -- °F
--% Chance of Precip.
Yesterday
High -- | Low -- °F
Precip. -- in
6:32 AM 4:43 PM
Waxing Crescent, 7% visible
Pressure 30.22 in
Visibility 10.0 miles
Clouds Clear
Heat Index 78 °F
Dew Point 14 °F
Humidity 8%
Rainfall 0.00 in
Snow Depth Not available.
UV 1 out of 12
Pollen 3.30 out of 12
Air Quality Not available.
Flu Activity Not available.
METAR KPOC 242247Z 25009KT 10SM CLR 24/M10 A3022

More Conditions Fewer Conditions

Pressure 30.22 in
Visibility 10.0 miles
Clouds Clear
Heat Index 78 °F
Dew Point 14 °F
Humidity 8%
Rainfall 0.00 in
Snow Depth Not available.
UV 1 out of 12
Pollen 3.30 out of 12
Air Quality Not available.
Flu Activity Not available.
METAR KPOC 242247Z 25009KT 10SM CLR 24/M10 A3022

More Conditions Fewer Conditions

10-Day Weather Forecast

Almanac

Astronomy

Nov. 24, 2014 Rise Set
Actual Time
Civil Twilight
Nautical Twilight
Astronomical Twilight
Moon
Length of Visible Light
Length of Day
Tomorrow will be .
, % of the Moon is Illuminated

Today's Extremes

State Highs State Lows

Community

WunderPhotos

Upload Photos

1,773,434 photos uploaded!

WunderBlogs® & News

Nearby

Air Quality

  Air Quality AQ Index Pollutant
Not available.

Snow Depth

Station Depth Elevation

Earthquake Activity

City Distance Mag. Time & Date
Minimum magnitude displayed is 2.5.

Coastal Water Temperatures

Place Temperature

Nearby Weather Stations